Time;durP1;ratioP1;P1;durP2;ratioP2;P2;SDS_P1;SDS_P2;PMS_P1;PMS_P2;Temp;Humidity;BMP_temperature;BMP_pressure;BME280_temperature;BME280_humidity;BME280_pressure;Samples;Min_cycle;Max_cycle;Signal;HPM_P1;HPM_P2
2023/06/20 05:25:19;;;;;;;8.45;4.63;;;;;;;18.56;71.92;99460.94;4961256;23;20055;-88
2023/06/20 05:27:47;;;;;;;8.50;4.95;;;;;;;18.63;70.99;99460.47;4908987;29;20402;-89
2023/06/20 05:30:16;;;;;;;6.35;4.55;;;;;;;18.71;71.01;99454.22;4910327;29;20035;-89
2023/06/20 05:32:44;;;;;;;7.03;4.63;;;;;;;18.88;70.29;99456.16;4913067;29;20043;-89
2023/06/20 05:35:10;;;;;;;11.32;4.60;;;;;;;18.94;68.60;99430.31;4902391;29;20428;-91
2023/06/20 05:37:36;;;;;;;10.43;6.35;;;;;;;19.17;67.62;99433.66;4911794;29;20039;-91
2023/06/20 05:40:27;;;;;;;13.27;5.78;;;;;;;19.38;67.17;99436.50;4931702;29;20062;-90
2023/06/20 05:43:00;;;;;;;7.30;4.45;;;;;;;19.48;67.68;99438.88;4906596;29;20039;-89
2023/06/20 05:45:25;;;;;;;7.47;4.72;;;;;;;19.68;67.35;99439.31;4904682;29;20062;-89
2023/06/20 05:51:40;;;;;;;9.80;4.45;;;;;;;19.98;66.63;99449.16;4933594;29;20031;-89
2023/06/20 06:01:14;;;;;;;10.40;5.15;;;;;;;20.22;64.42;99453.22;4883500;29;20028;-90
2023/06/20 06:03:40;;;;;;;11.98;5.45;;;;;;;20.46;64.62;99470.91;4933416;29;20042;-93
2023/06/20 06:06:11;;;;;;;9.88;4.65;;;;;;;20.55;63.69;99449.78;4921563;29;20039;-95
2023/06/20 06:08:40;;;;;;;9.20;4.38;;;;;;;20.69;62.68;99447.59;4921263;29;20419;-94
2023/06/20 06:11:09;;;;;;;7.93;4.32;;;;;;;20.88;62.71;99446.34;4948120;28;20046;-93
2023/06/20 06:13:39;;;;;;;8.75;4.30;;;;;;;20.99;62.55;99448.31;4932816;29;20051;-93
2023/06/20 06:16:05;;;;;;;4.90;3.80;;;;;;;21.00;61.86;99440.91;4915119;29;20062;-92
2023/06/20 06:18:31;;;;;;;11.60;5.55;;;;;;;20.88;62.27;99449.06;4915525;28;20125;-91
2023/06/20 06:21:00;;;;;;;8.38;4.65;;;;;;;21.07;61.82;99438.41;4904203;28;20039;-92
2023/06/20 06:26:31;;;;;;;8.45;5.50;;;;;;;21.02;61.71;99424.91;4936837;29;20058;-93
2023/06/20 06:29:00;;;;;;;13.20;4.97;;;;;;;21.43;61.04;99458.84;4927709;29;20040;-91
2023/06/20 06:31:29;;;;;;;7.22;4.40;;;;;;;21.42;59.89;99434.53;4910982;28;20058;-90
2023/06/20 06:33:56;;;;;;;7.72;4.65;;;;;;;21.50;59.47;99431.72;4921838;29;20047;-92
2023/06/20 06:36:25;;;;;;;569.83;510.90;;;;;;;21.67;59.25;99421.69;4931824;28;20617;-93
2023/06/20 06:38:51;;;;;;;22.63;13.63;;;;;;;21.69;59.60;99419.41;4900163;29;20063;-93
2023/06/20 06:41:17;;;;;;;10.07;5.43;;;;;;;21.98;58.57;99432.88;4920147;29;20131;-93
2023/06/20 06:43:50;;;;;;;6.93;4.60;;;;;;;22.08;58.78;99428.06;4907176;29;20050;-95
2023/06/20 06:46:24;;;;;;;8.77;5.53;;;;;;;22.22;57.70;99444.97;4948529;29;20541;-93
2023/06/20 06:48:50;;;;;;;6.38;4.90;;;;;;;22.03;57.17;99428.31;4911545;28;20043;-94
2023/06/20 06:51:26;;;;;;;8.48;5.25;;;;;;;22.17;57.80;99439.72;4911683;29;20047;-92
2023/06/20 06:54:43;;;;;;;;;;;;;;;;;;;;;
2023/06/20 07:04:18;;;;;;;6.85;4.63;;;;;;;22.79;56.99;99443.16;4793601;29;20096;-96
2023/06/20 07:06:58;;;;;;;;;;;;;;;;;;;;;
2023/06/20 07:13:10;;;;;;;8.95;4.32;;;;;;;23.42;56.07;99463.72;4876093;29;20117;-95
2023/06/20 07:15:39;;;;;;;14.80;10.55;;;;;;;23.51;54.82;99434.94;4922518;29;20039;-96
2023/06/20 07:21:18;;;;;;;10.45;5.38;;;;;;;23.76;54.66;99426.47;4894550;29;20105;-96
2023/06/20 07:23:53;;;;;;;14.00;5.07;;;;;;;23.96;53.94;99450.19;4866874;29;20028;-96
2023/06/20 07:26:30;;;;;;;6.70;4.78;;;;;;;23.98;53.22;99444.31;4895601;29;20634;-95
2023/06/20 07:28:56;;;;;;;7.78;4.60;;;;;;;24.15;53.41;99456.91;4909176;29;20044;-94
2023/06/20 07:31:33;;;;;;;7.80;4.65;;;;;;;23.89;53.79;99440.97;4899074;29;20096;-95
2023/06/20 07:33:59;;;;;;;6.88;4.45;;;;;;;23.89;53.08;99455.53;4886013;29;20042;-95
2023/06/20 07:40:42;;;;;;;5.40;4.30;;;;;;;23.62;53.96;99431.66;4861673;29;20037;-96
2023/06/20 07:43:25;;;;;;;7.85;4.85;;;;;;;23.56;53.78;99448.41;4864421;29;20026;-96
2023/06/20 07:52:20;;;;;;;8.02;4.80;;;;;;;23.84;53.60;99458.53;4874453;29;20117;-96
2023/06/20 07:54:48;;;;;;;12.73;9.98;;;;;;;23.84;53.30;99442.03;4909052;29;20031;-91
2023/06/20 07:57:14;;;;;;;5.70;4.90;;;;;;;23.92;51.98;99443.78;4921946;29;20032;-92
2023/06/20 07:59:39;;;;;;;11.02;5.13;;;;;;;24.13;52.58;99442.69;4895987;29;20043;-90
2023/06/20 08:02:07;;;;;;;6.22;4.68;;;;;;;24.46;50.44;99438.72;4914717;29;20079;-89
2023/06/20 08:04:33;;;;;;;11.13;4.60;;;;;;;24.79;49.68;99468.56;4911777;29;20035;-91
2023/06/20 08:06:59;;;;;;;7.47;5.10;;;;;;;24.88;49.97;99465.59;4912608;29;20042;-90
2023/06/20 08:09:27;;;;;;;14.35;9.45;;;;;;;25.02;49.58;99471.38;4929249;29;20063;-89
2023/06/20 08:11:53;;;;;;;7.72;4.32;;;;;;;25.23;49.84;99487.56;4898276;29;20048;-90
2023/06/20 08:14:18;;;;;;;8.10;4.90;;;;;;;24.94;49.07;99453.13;4909035;29;20043;-91
2023/06/20 08:16:45;;;;;;;6.80;4.30;;;;;;;24.92;49.71;99470.03;4892570;29;20042;-90
2023/06/20 08:19:13;;;;;;;5.28;4.35;;;;;;;24.92;49.54;99464.53;4887355;29;20044;-90
2023/06/20 08:21:38;;;;;;;8.10;4.57;;;;;;;24.93;50.07;99466.09;4898654;29;20033;-95
2023/06/20 08:24:05;;;;;;;5.88;4.95;;;;;;;24.97;49.34;99491.75;4913421;29;20075;-95
2023/06/20 08:26:35;;;;;;;6.28;5.03;;;;;;;24.76;50.10;99483.06;4901176;29;20107;-94
2023/06/20 08:29:01;;;;;;;14.00;10.17;;;;;;;24.60;50.68;99483.91;4930988;29;20047;-96
2023/06/20 08:31:40;;;;;;;7.47;5.32;;;;;;;24.53;51.04;99475.50;4899323;29;20283;-96
2023/06/20 08:34:06;;;;;;;9.07;4.93;;;;;;;24.46;51.99;99482.75;4918503;29;20036;-96
2023/06/20 09:30:01;;;;;;;10.77;4.97;;;;;;;25.70;48.57;99525.06;4896185;29;20149;-94
2023/06/20 09:32:31;;;;;;;9.50;5.55;;;;;;;25.77;47.33;99502.31;4867551;29;20136;-91
2023/06/20 09:34:57;;;;;;;5.53;4.70;;;;;;;25.67;47.43;99516.72;4862745;29;20100;-92
2023/06/20 09:37:30;;;;;;;14.02;5.53;;;;;;;25.70;48.23;99521.53;4861713;29;20044;-92
2023/06/20 09:39:58;;;;;;;7.43;6.10;;;;;;;25.45;46.99;99491.53;4896307;29;20116;-92
2023/06/20 09:42:26;;;;;;;6.50;5.10;;;;;;;25.54;48.35;99505.06;4872105;29;20108;-91
2023/06/20 09:44:59;;;;;;;5.07;4.25;;;;;;;25.41;49.05;99494.22;4869637;29;20044;-89
2023/06/20 09:47:25;;;;;;;7.13;4.00;;;;;;;25.36;49.44;99511.06;4843099;29;20050;-89
2023/06/20 09:50:12;;;;;;;5.35;4.70;;;;;;;25.31;50.04;99503.06;4862908;29;20041;-90
2023/06/20 09:53:22;;;;;;;47.88;35.25;;;;;;;25.46;49.24;99517.13;4848410;29;20041;-89
2023/06/20 09:55:48;;;;;;;7.43;5.50;;;;;;;25.26;50.14;99500.63;4852557;29;20033;-91
2023/06/20 09:58:22;;;;;;;6.65;4.30;;;;;;;25.15;50.88;99505.09;4868393;29;20498;-91
2023/06/20 10:01:04;;;;;;;4.95;4.22;;;;;;;25.38;49.86;99518.94;4852987;29;20036;-89
2023/06/20 10:03:30;;;;;;;6.00;4.10;;;;;;;25.43;50.48;99496.63;4863234;29;20039;-89
2023/06/20 10:06:04;;;;;;;8.80;4.97;;;;;;;25.58;49.60;99475.59;4859031;29;20040;-91
2023/06/20 10:08:53;;;;;;;12.85;5.72;;;;;;;25.86;48.83;99488.28;4862299;29;20546;-88
2023/06/20 10:11:22;;;;;;;6.80;4.30;;;;;;;25.73;49.23;99482.16;4881650;29;20081;-94
2023/06/20 10:13:51;;;;;;;9.25;5.40;;;;;;;25.74;48.60;99476.28;4858703;29;20045;-96
2023/06/20 10:16:20;;;;;;;6.07;4.00;;;;;;;25.80;47.07;99471.25;4857976;29;20049;-93
2023/06/20 10:18:50;;;;;;;7.53;4.80;;;;;;;25.79;47.15;99473.22;4855016;29;20131;-94
2023/06/20 10:21:16;;;;;;;7.10;3.88;;;;;;;25.85;47.25;99462.66;4863223;29;20041;-96
2023/06/20 10:23:43;;;;;;;6.35;4.50;;;;;;;26.01;45.97;99468.88;4876826;29;20164;-95
2023/06/20 10:26:27;;;;;;;6.15;4.70;;;;;;;25.78;45.89;99463.34;4867075;29;20033;-94
2023/06/20 10:29:11;;;;;;;4.60;3.63;;;;;;;26.16;46.72;99471.84;4862211;29;20037;-96
2023/06/20 10:35:15;;;;;;;4.95;3.40;;;;;;;26.25;45.33;99477.94;4854567;29;20044;-94
2023/06/20 10:37:44;;;;;;;5.10;3.97;;;;;;;26.09;46.33;99452.44;5000631;23;20046;-92
2023/06/20 10:40:44;;;;;;;;;;;;;;;;;;;;;
2023/06/20 10:43:17;;;;;;;3.75;2.85;;;;;;;26.05;46.38;99443.31;4880301;29;20471;-94
2023/06/20 10:49:38;;;;;;;3.08;2.53;;;;;;;25.77;47.00;99460.97;4818153;29;20033;-91
2023/06/20 10:52:06;;;;;;;87.38;65.20;;;;;;;25.85;47.43;99451.63;4884343;29;20039;-92
2023/06/20 10:54:33;;;;;;;38.60;26.00;;;;;;;25.86;46.42;99441.38;4922659;29;20105;-89
2023/06/20 10:57:04;;;;;;;5.45;3.65;;;;;;;26.02;45.82;99447.59;4899732;29;20035;-90
2023/06/20 10:59:29;;;;;;;5.57;3.20;;;;;;;26.05;46.58;99457.09;4896993;29;20062;-92
2023/06/20 11:01:56;;;;;;;5.20;3.15;;;;;;;25.87;46.95;99440.22;4898985;29;20067;-88
2023/06/20 11:04:21;;;;;;;6.07;3.20;;;;;;;26.12;45.46;99455.22;4905062;29;20047;-90
2023/06/20 11:06:47;;;;;;;4.97;2.95;;;;;;;26.10;44.96;99460.31;4909963;29;20040;-92
2023/06/20 11:09:29;;;;;;;3.97;2.92;;;;;;;25.99;44.24;99451.88;4906034;29;20099;-91
2023/06/20 11:12:07;;;;;;;5.18;2.90;;;;;;;25.94;45.01;99438.41;4916431;29;20032;-96
2023/06/20 11:14:57;;;;;;;3.90;2.97;;;;;;;26.00;44.14;99449.91;4921925;29;20121;-94
2023/06/20 11:17:44;;;;;;;3.58;3.17;;;;;;;26.06;44.61;99447.66;4934176;29;20040;-96
2023/06/20 11:20:25;;;;;;;4.00;3.30;;;;;;;26.25;44.28;99460.53;4933751;29;20065;-94
2023/06/20 11:29:54;;;;;;;;;;;;;;;26.52;43.15;99467.66;4957969;28;20198;-96
2023/06/20 11:32:24;;;;;;;4.90;3.20;;;;;;;26.56;42.47;99465.75;5075325;23;19922;-95
2023/06/20 11:35:23;;;;;;;3.72;2.90;;;;;;;26.40;41.58;99462.34;4954386;28;20042;-96
2023/06/20 11:37:59;;;;;;;6.05;3.03;;;;;;;26.45;41.48;99450.97;4928900;29;20043;-96
2023/06/20 11:40:25;;;;;;;4.93;3.60;;;;;;;26.51;42.41;99454.22;4952798;28;20067;-95
2023/06/20 11:42:52;;;;;;;7.15;3.60;;;;;;;26.47;42.48;99456.13;4954689;28;20054;-95
2023/06/20 11:45:23;;;;;;;8.05;3.28;;;;;;;26.55;42.66;99461.38;4955861;28;20050;-96
2023/06/20 11:47:59;;;;;;;9.75;4.00;;;;;;;26.57;42.32;99455.50;4961953;28;20026;-94
2023/06/20 11:50:24;;;;;;;4.00;3.40;;;;;;;26.78;42.26;99468.81;4960216;28;20042;-93
2023/06/20 11:52:58;;;;;;;3.45;2.97;;;;;;;26.74;42.10;99451.38;4957431;28;20027;-94
2023/06/20 11:55:50;;;;;;;3.75;3.08;;;;;;;27.00;40.62;99481.72;4977963;28;20046;-93
2023/06/20 11:58:49;;;;;;;5.03;3.00;;;;;;;26.81;41.22;99452.28;4972300;28;20440;-94
2023/06/20 12:01:27;;;;;;;4.82;3.38;;;;;;;27.21;41.12;99481.16;4977468;28;20046;-96
2023/06/20 12:04:06;;;;;;;3.88;2.85;;;;;;;27.01;40.60;99465.91;4974963;28;20039;-95
2023/06/20 12:06:52;;;;;;;4.53;3.70;;;;;;;27.10;41.40;99477.50;4958340;28;20035;-96
2023/06/20 12:09:33;;;;;;;6.28;3.05;;;;;;;27.21;40.37;99485.91;4959664;28;20098;-94
2023/06/20 12:12:09;;;;;;;5.35;2.80;;;;;;;27.18;40.43;99475.56;4958537;28;20045;-95
2023/06/20 12:14:39;;;;;;;4.97;3.38;;;;;;;27.00;40.84;99475.41;4956445;28;20047;-92
2023/06/20 12:17:07;;;;;;;4.05;3.28;;;;;;;27.13;41.46;99470.41;4952848;28;20094;-92
2023/06/20 12:19:37;;;;;;;3.75;3.10;;;;;;;27.46;41.16;99482.63;4965206;28;20035;-92
2023/06/20 12:22:03;;;;;;;3.70;3.20;;;;;;;27.32;40.43;99455.63;4966298;28;20051;-94
2023/06/20 12:27:48;;;;;;;6.32;5.07;;;;;;;27.68;40.68;99447.66;4970031;28;20049;-95
2023/06/20 12:33:45;;;;;;;4.53;3.50;;;;;;;27.58;40.24;99440.84;4965166;28;20147;-93
2023/06/20 12:36:12;;;;;;;5.13;3.40;;;;;;;27.85;39.11;99468.34;4915499;29;20047;-91
2023/06/20 12:39:04;;;;;;;6.25;4.75;;;;;;;27.79;38.17;99440.25;4925860;28;20043;-94
2023/06/20 12:41:34;;;;;;;3.53;3.00;;;;;;;27.93;37.90;99454.22;4896385;29;20075;-93
2023/06/20 12:44:02;;;;;;;7.20;3.22;;;;;;;27.96;37.99;99445.13;4912028;29;20528;-94
2023/06/20 12:46:27;;;;;;;6.05;2.90;;;;;;;28.10;37.96;99443.63;4914986;29;20049;-94
2023/06/20 12:48:54;;;;;;;6.40;3.22;;;;;;;28.14;38.02;99438.91;4931504;29;20106;-94
2023/06/20 12:51:21;;;;;;;4.47;3.13;;;;;;;28.29;36.73;99460.00;4946827;29;20106;-94
2023/06/20 12:53:50;;;;;;;4.38;3.30;;;;;;;28.54;36.41;99443.53;4948326;29;20129;-92
2023/06/20 12:56:17;;;;;;;3.17;2.70;;;;;;;28.95;35.65;99445.28;4948412;28;20043;-92
2023/06/20 12:59:08;;;;;;;4.07;3.05;;;;;;;28.84;34.94;99452.78;4948811;28;20055;-94
2023/06/20 13:01:34;;;;;;;2.88;2.50;;;;;;;28.99;34.20;99444.13;4960159;28;20103;-92
2023/06/20 13:04:01;;;;;;;2.65;2.30;;;;;;;28.75;34.41;99428.19;4953064;29;20035;-92
2023/06/20 13:06:43;;;;;;;7.43;3.10;;;;;;;29.06;34.39;99428.69;4964921;28;20203;-91
2023/06/20 13:09:14;;;;;;;6.75;3.92;;;;;;;29.25;33.38;99425.59;4949886;29;20087;-92
2023/06/20 13:15:02;;;;;;;6.13;4.10;;;;;;;29.19;33.81;99435.47;5589229;23;20059;-93
2023/06/20 13:17:40;;;;;;;3.00;2.50;;;;;;;29.42;33.31;99412.91;4916853;29;20454;-93
2023/06/20 13:20:06;;;;;;;4.68;2.95;;;;;;;29.45;32.97;99427.97;4920398;29;20066;-94
2023/06/20 13:22:33;;;;;;;3.88;3.08;;;;;;;29.51;33.36;99430.00;4935578;29;20035;-94
2023/06/20 13:25:01;;;;;;;2.88;2.40;;;;;;;29.50;33.46;99408.97;4899190;29;20055;-92
2023/06/20 13:27:27;;;;;;;3.28;2.60;;;;;;;29.52;33.34;99412.13;4914466;29;20040;-95
2023/06/20 13:29:57;;;;;;;3.80;2.50;;;;;;;29.96;33.28;99416.50;4913701;29;20050;-93
2023/06/20 13:32:26;;;;;;;;;;;;;;;30.12;32.88;99420.84;4930303;29;20047;-95
2023/06/20 13:34:51;;;;;;;3.67;2.60;;;;;;;29.81;33.22;99418.50;4913860;29;19911;-93
2023/06/20 13:37:22;;;;;;;3.55;2.53;;;;;;;29.77;32.20;99394.72;4917121;29;20147;-95
2023/06/20 13:39:51;;;;;;;4.38;2.80;;;;;;;30.39;32.45;99422.00;4913745;29;20050;-95
2023/06/20 13:42:16;;;;;;;3.08;2.20;;;;;;;30.32;32.26;99399.81;4904311;29;20044;-95
2023/06/20 13:44:43;;;;;;;3.40;2.28;;;;;;;30.52;31.95;99429.88;4915785;29;20067;-94
2023/06/20 13:47:16;;;;;;;5.25;2.50;;;;;;;31.05;31.06;99426.09;4945907;29;20044;-96
2023/06/20 13:49:41;;;;;;;3.70;2.58;;;;;;;31.36;31.37;99415.97;4914711;29;20413;-94
2023/06/20 13:52:07;;;;;;;4.80;2.00;;;;;;;31.44;30.00;99408.38;4916542;29;20035;-94
2023/06/20 13:54:33;;;;;;;2.97;2.50;;;;;;;31.01;30.70;99392.75;4916817;29;20075;-96
2023/06/20 13:57:20;;;;;;;2.85;2.30;;;;;;;31.24;30.58;99416.44;4927751;29;20043;-94
2023/06/20 13:59:51;;;;;;;3.03;2.50;;;;;;;31.59;30.34;99395.94;4915886;29;20051;-95
2023/06/20 14:02:23;;;;;;;3.20;2.40;;;;;;;32.50;28.40;99420.88;4922980;29;20077;-96
2023/06/20 14:04:55;;;;;;;2.63;2.33;;;;;;;32.66;28.05;99390.44;4924017;29;20111;-96
2023/06/20 14:07:24;;;;;;;3.53;3.10;;;;;;;33.00;28.08;99392.38;4902710;29;20020;-96
2023/06/20 14:10:04;;;;;;;5.17;2.60;;;;;;;33.25;27.62;99399.63;4944977;29;20062;-95
2023/06/20 14:12:30;;;;;;;2.53;2.30;;;;;;;33.60;27.35;99423.41;4919503;29;20481;-95
2023/06/20 14:14:58;;;;;;;3.72;2.63;;;;;;;33.57;26.30;99399.09;4917318;29;20498;-95
2023/06/20 14:17:26;;;;;;;4.22;2.25;;;;;;;34.06;25.45;99402.25;4915997;29;20035;-91
2023/06/20 14:23:53;;;;;;;2.47;2.13;;;;;;;34.78;23.57;99407.25;4908919;29;20039;-91
2023/06/20 14:26:19;;;;;;;4.53;2.33;;;;;;;35.13;23.65;99393.63;4924246;29;20043;-93
2023/06/20 14:28:48;;;;;;;5.90;2.35;;;;;;;35.53;21.85;99401.94;4922086;29;20035;-92
2023/06/20 14:31:18;;;;;;;2.42;1.88;;;;;;;35.79;21.31;99402.88;4923176;29;20057;-92
2023/06/20 14:33:46;;;;;;;4.03;2.38;;;;;;;35.79;21.69;99402.09;4935657;29;20118;-91
2023/06/20 14:36:12;;;;;;;4.00;2.08;;;;;;;36.08;21.36;99409.75;4911132;29;20044;-93
2023/06/20 14:38:39;;;;;;;2.67;1.90;;;;;;;36.67;20.90;99402.91;4941073;29;20043;-92
2023/06/20 14:41:05;;;;;;;5.13;2.10;;;;;;;36.28;21.18;99410.41;4909430;29;20046;-92
2023/06/20 14:43:31;;;;;;;3.40;2.05;;;;;;;35.88;22.42;99396.63;4913143;29;20043;-93
2023/06/20 14:45:57;;;;;;;2.60;2.10;;;;;;;35.70;22.10;99397.13;4903468;29;20572;-92
2023/06/20 14:48:24;;;;;;;2.45;1.80;;;;;;;34.56;23.19;99398.47;4919658;29;20027;-89
2023/06/20 14:50:50;;;;;;;2.40;2.10;;;;;;;34.01;24.66;99411.91;4913859;29;20103;-93
2023/06/20 14:53:20;;;;;;;3.65;2.20;;;;;;;34.30;24.41;99396.63;4904594;29;20054;-93
2023/06/20 14:55:47;;;;;;;3.63;2.10;;;;;;;33.90;24.67;99402.16;4921847;29;20137;-91
2023/06/20 14:58:30;;;;;;;2.95;2.22;;;;;;;34.09;24.29;99406.19;4932373;29;20409;-92
2023/06/20 15:01:19;;;;;;;2.88;2.28;;;;;;;32.84;26.36;99418.09;4949863;29;20043;-92
2023/06/20 15:03:44;;;;;;;4.90;2.40;;;;;;;32.40;27.50;99423.41;4934008;29;20079;-92
2023/06/20 15:06:10;;;;;;;2.80;2.10;;;;;;;31.93;28.15;99414.69;4914705;29;20043;-91
2023/06/20 15:08:36;;;;;;;3.72;2.40;;;;;;;32.12;27.93;99430.06;4912778;29;20043;-90
2023/06/20 15:11:01;;;;;;;5.90;2.70;;;;;;;32.39;27.71;99423.81;4911534;29;20041;-88
2023/06/20 15:13:27;;;;;;;2.67;2.28;;;;;;;32.73;27.15;99414.69;4909072;29;20050;-88
2023/06/20 15:15:53;;;;;;;4.55;2.55;;;;;;;33.75;25.58;99416.38;4921360;29;20070;-88
2023/06/20 15:18:20;;;;;;;3.92;2.15;;;;;;;34.06;24.89;99432.22;4926205;29;20051;-89
2023/06/20 15:21:10;;;;;;;3.20;2.00;;;;;;;34.43;24.79;99414.34;4919688;29;20039;-89
2023/06/20 15:23:37;;;;;;;3.75;2.10;;;;;;;34.56;24.26;99420.06;4888589;29;20055;-91
2023/06/20 15:26:03;;;;;;;2.90;2.17;;;;;;;34.55;23.96;99404.50;4872835;29;20040;-89
2023/06/20 15:28:33;;;;;;;2.30;1.95;;;;;;;33.21;25.49;99408.06;4872894;29;20107;-91
2023/06/20 15:31:04;;;;;;;2.67;2.05;;;;;;;32.38;27.16;99413.88;4873975;29;20127;-91
2023/06/20 15:33:30;;;;;;;2.83;2.22;;;;;;;31.99;27.49;99410.28;4872300;29;20120;-92
2023/06/20 15:35:55;;;;;;;2.88;2.15;;;;;;;31.61;28.95;99410.22;4872489;29;20101;-90
2023/06/20 15:38:22;;;;;;;3.42;2.15;;;;;;;32.16;27.98;99413.31;4888243;29;20048;-89
2023/06/20 15:41:59;;;;;;;;;;;;;;;;;;;;;
2023/06/20 15:44:25;;;;;;;2.85;2.10;;;;;;;32.92;26.40;99414.00;4894261;29;20484;-93
2023/06/20 15:46:54;;;;;;;4.70;2.30;;;;;;;32.52;27.03;99422.06;4887578;29;20070;-94
2023/06/20 15:49:26;;;;;;;6.72;1.95;;;;;;;32.16;26.40;99430.03;4874247;29;20086;-95
2023/06/20 15:51:52;;;;;;;3.70;1.95;;;;;;;31.46;27.46;99424.66;4921575;29;20051;-94
2023/06/20 15:54:18;;;;;;;2.58;2.20;;;;;;;31.21;27.22;99420.84;4899638;29;20043;-94
2023/06/20 15:56:44;;;;;;;2.65;1.90;;;;;;;30.71;27.97;99431.41;4928431;29;20114;-94
2023/06/20 15:59:17;;;;;;;2.80;2.17;;;;;;;30.34;28.77;99436.31;4895140;29;20044;-93
2023/06/20 16:01:43;;;;;;;3.08;2.28;;;;;;;30.16;28.66;99441.06;4896611;29;20052;-93
2023/06/20 16:04:09;;;;;;;4.28;1.98;;;;;;;30.13;29.35;99452.97;4928397;29;20043;-95
2023/06/20 16:06:49;;;;;;;4.22;2.10;;;;;;;30.14;28.81;99455.34;4929448;29;20032;-93
2023/06/20 16:09:15;;;;;;;2.95;1.80;;;;;;;29.80;29.78;99454.97;4920150;28;20031;-92
2023/06/20 16:11:41;;;;;;;4.30;2.10;;;;;;;30.51;28.63;99456.09;4947064;29;20043;-96
2023/06/20 16:14:06;;;;;;;5.55;2.08;;;;;;;31.32;27.64;99451.38;4944708;29;20065;-94
2023/06/20 16:16:39;;;;;;;5.47;1.85;;;;;;;32.04;26.07;99461.97;4915734;29;20043;-96
2023/06/20 16:19:11;;;;;;;3.13;1.80;;;;;;;32.93;24.81;99465.78;4937630;29;20483;-96
2023/06/20 16:21:47;;;;;;;2.25;1.70;;;;;;;33.20;24.28;99434.38;4941305;28;20031;-96
2023/06/20 16:29:15;;;;;;;2.70;2.00;;;;;;;31.76;26.85;99474.16;4934753;28;20052;-92
2023/06/20 16:31:41;;;;;;;6.47;3.90;;;;;;;30.72;28.46;99456.03;4897837;29;20540;-91
2023/06/20 16:34:07;;;;;;;21.70;12.23;;;;;;;30.16;29.29;99447.41;4906600;29;20095;-92
2023/06/20 16:36:32;;;;;;;13.27;7.03;;;;;;;29.60;30.40;99463.66;4903233;29;20063;-92
2023/06/20 16:38:58;;;;;;;14.52;6.95;;;;;;;29.06;31.82;99453.66;4895282;29;20059;-91
2023/06/20 16:41:26;;;;;;;15.10;7.57;;;;;;;28.88;31.82;99445.25;4890608;29;20047;-91
2023/06/20 16:43:52;;;;;;;4.80;3.03;;;;;;;28.21;32.56;99447.28;4889420;29;20128;-89
2023/06/20 16:46:17;;;;;;;7.45;4.20;;;;;;;28.30;32.76;99467.13;4890191;29;20028;-89
2023/06/20 16:48:44;;;;;;;7.82;4.20;;;;;;;27.96;33.61;99472.81;4889747;29;20039;-90
2023/06/20 16:51:09;;;;;;;9.07;4.45;;;;;;;27.85;33.92;99463.63;4889898;29;20038;-89
2023/06/20 16:53:35;;;;;;;7.78;3.78;;;;;;;27.47;34.59;99473.94;4890703;29;20028;-89
2023/06/20 16:56:00;;;;;;;10.43;4.10;;;;;;;27.34;34.38;99472.63;4896728;29;20032;-90
2023/06/20 16:58:27;;;;;;;10.38;4.07;;;;;;;27.13;34.81;99475.94;4906882;29;20036;-91
2023/06/20 17:00:52;;;;;;;5.28;2.60;;;;;;;27.05;35.21;99471.50;4890822;29;20103;-91
2023/06/20 17:03:18;;;;;;;7.53;3.35;;;;;;;26.86;36.09;99472.44;4902671;29;20043;-90
2023/06/20 17:05:43;;;;;;;7.13;4.32;;;;;;;26.65;35.94;99459.97;4911000;29;20086;-90
2023/06/20 17:08:09;;;;;;;6.35;4.18;;;;;;;26.68;35.98;99463.94;4910639;29;20040;-91
2023/06/20 17:10:34;;;;;;;7.65;4.15;;;;;;;26.47;36.86;99462.44;4943155;29;20544;-89
2023/06/20 17:13:00;;;;;;;5.90;3.08;;;;;;;26.48;36.49;99472.34;4905429;29;20418;-90
2023/06/20 17:15:26;;;;;;;4.95;2.65;;;;;;;26.38;37.01;99473.78;4890772;29;20036;-90
2023/06/20 17:17:51;;;;;;;6.25;3.10;;;;;;;26.26;37.65;99470.44;4891217;29;20036;-89
2023/06/20 17:20:17;;;;;;;3.75;2.83;;;;;;;26.04;38.50;99467.31;4888449;29;20028;-90
2023/06/20 17:22:42;;;;;;;4.80;2.67;;;;;;;25.99;38.57;99468.44;4889156;29;20044;-90
2023/06/20 17:25:08;;;;;;;3.05;2.75;;;;;;;25.80;39.26;99465.75;4889258;29;20036;-88
2023/06/20 17:27:34;;;;;;;5.38;3.90;;;;;;;25.83;39.16;99469.72;4868298;29;20091;-89
2023/06/20 17:30:00;;;;;;;5.78;3.20;;;;;;;25.79;39.88;99464.13;4855742;29;20033;-89
2023/06/20 17:32:29;;;;;;;5.35;2.92;;;;;;;25.61;40.50;99464.66;4855018;29;20505;-89
2023/06/20 17:34:55;;;;;;;7.25;3.10;;;;;;;25.44;41.76;99461.56;4854525;29;20044;-88
2023/06/20 17:37:21;;;;;;;4.28;3.28;;;;;;;25.28;41.43;99459.72;4870346;29;20092;-89
2023/06/20 17:39:47;;;;;;;6.97;3.10;;;;;;;25.21;42.77;99470.59;4855089;29;20043;-89
2023/06/20 17:42:12;;;;;;;5.53;3.38;;;;;;;25.10;43.08;99462.09;4854465;29;20016;-89
2023/06/20 17:44:37;;;;;;;7.07;3.47;;;;;;;25.10;43.43;99473.13;4869462;29;20419;-89
2023/06/20 17:47:03;;;;;;;8.05;3.60;;;;;;;25.11;43.97;99460.13;4854183;29;20032;-89
2023/06/20 17:49:28;;;;;;;7.10;3.40;;;;;;;25.01;44.38;99461.53;4854611;29;20032;-89
2023/06/20 17:51:54;;;;;;;5.07;3.42;;;;;;;24.95;44.40;99461.03;4854101;29;20032;-89
2023/06/20 17:54:20;;;;;;;7.45;3.95;;;;;;;24.84;45.19;99465.53;4853949;29;20507;-89
2023/06/20 17:56:46;;;;;;;7.25;4.07;;;;;;;24.77;45.29;99463.41;4854140;29;20036;-89
2023/06/20 17:59:12;;;;;;;8.55;3.80;;;;;;;24.62;45.16;99460.72;4870299;29;20028;-90
2023/06/20 18:01:37;;;;;;;7.72;4.35;;;;;;;24.50;46.37;99451.44;4870218;29;20100;-90
2023/06/20 18:04:03;;;;;;;9.25;4.30;;;;;;;24.43;46.36;99448.50;4876580;29;20055;-89
2023/06/20 18:06:29;;;;;;;8.15;4.72;;;;;;;24.29;47.08;99448.19;4890604;29;20094;-89
2023/06/20 18:08:54;;;;;;;10.20;4.70;;;;;;;24.21;47.73;99458.22;4860479;29;20036;-90
2023/06/20 18:11:20;;;;;;;10.13;4.95;;;;;;;24.05;47.28;99455.50;4853363;29;20036;-89
2023/06/20 18:13:45;;;;;;;7.80;4.63;;;;;;;23.98;48.27;99456.13;4869835;29;20092;-89
2023/06/20 18:16:13;;;;;;;10.80;4.50;;;;;;;23.92;48.76;99457.53;4852584;29;20036;-89
2023/06/20 18:18:40;;;;;;;10.48;5.78;;;;;;;23.87;49.09;99463.34;4869324;29;20040;-89
2023/06/20 18:21:10;;;;;;;7.07;4.90;;;;;;;23.65;50.03;99470.22;4854155;29;20032;-89
2023/06/20 18:23:35;;;;;;;9.57;4.85;;;;;;;23.60;50.06;99479.53;4869580;29;20040;-89
2023/06/20 18:26:01;;;;;;;8.90;4.47;;;;;;;23.42;50.63;99469.22;4854264;29;20044;-89
2023/06/20 18:28:26;;;;;;;4.82;4.00;;;;;;;23.38;51.33;99478.16;4865816;29;20040;-89
2023/06/20 18:30:52;;;;;;;7.32;4.30;;;;;;;23.31;52.21;99486.22;4887072;29;20387;-89
2023/06/20 18:33:17;;;;;;;7.95;4.15;;;;;;;23.12;53.07;99473.16;4887073;29;20566;-89
2023/06/20 18:35:43;;;;;;;8.38;4.30;;;;;;;23.07;52.91;99480.81;4887949;29;20076;-90
2023/06/20 18:38:11;;;;;;;10.18;4.25;;;;;;;22.97;53.68;99493.06;4887422;29;20127;-89
2023/06/20 18:40:37;;;;;;;8.10;4.43;;;;;;;22.82;54.47;99489.13;4888676;29;20039;-91
2023/06/20 18:43:02;;;;;;;6.82;4.20;;;;;;;22.75;54.75;99500.69;4886756;29;20036;-89
2023/06/20 18:45:28;;;;;;;9.55;4.13;;;;;;;22.57;55.12;99494.66;4887229;29;20028;-90
2023/06/20 18:47:53;;;;;;;6.20;4.57;;;;;;;22.56;55.44;99506.78;4887366;29;20059;-88
2023/06/20 18:50:19;;;;;;;9.65;4.38;;;;;;;22.45;55.85;99511.13;4876291;29;20036;-89
2023/06/20 18:52:44;;;;;;;7.05;3.80;;;;;;;22.22;56.45;99510.00;4887277;29;20043;-89
2023/06/20 18:55:10;;;;;;;11.70;3.92;;;;;;;22.14;57.00;99511.69;4870746;29;20044;-90
2023/06/20 18:57:35;;;;;;;4.97;3.95;;;;;;;22.11;57.70;99517.88;4859024;29;20045;-89
2023/06/20 19:00:01;;;;;;;4.65;3.60;;;;;;;22.10;57.70;99517.09;4883246;29;20032;-89
2023/06/20 19:02:26;;;;;;;5.88;4.15;;;;;;;22.02;57.71;99508.94;4873367;29;20531;-89
2023/06/20 19:04:52;;;;;;;7.75;4.68;;;;;;;22.02;57.10;99506.22;4865648;29;20044;-89
2023/06/20 19:07:17;;;;;;;11.57;4.85;;;;;;;22.02;57.86;99517.19;4882934;29;20023;-89
2023/06/20 19:09:43;;;;;;;11.80;6.30;;;;;;;22.11;57.78;99518.69;4890720;29;20064;-89
2023/06/20 19:12:08;;;;;;;9.40;5.72;;;;;;;22.13;57.20;99510.91;4891615;29;20027;-90
2023/06/20 19:14:34;;;;;;;9.68;5.85;;;;;;;22.08;57.46;99515.81;4905474;29;20036;-90
2023/06/20 19:17:00;;;;;;;8.48;4.95;;;;;;;22.09;57.39;99511.94;4905639;29;20039;-90
2023/06/20 19:19:25;;;;;;;8.02;4.80;;;;;;;21.98;58.36;99526.09;4890490;29;20064;-90